Stations météo

réclame
Mon MeteoGroup
Chamonix, France (7469): Température de l'air & dewpoint: 09.07.2020 10:00:00 - 15.07.2020 10:00:00 (CEST)Chamonix, France (7469): Vitesse du vent & gusts: 09.07.2020 10:00:00 - 15.07.2020 10:00:00 (CEST)Chamonix, France (7469): Direction du vent: 09.07.2020 10:00:00 - 15.07.2020 10:00:00 (CEST)Chamonix, France (7469): Quantités de précipitations: 09.07.2020 10:00:00 - 15.07.2020 10:00:00 (CEST)
Date & Time tt [°C] td [°C] ff [km/h] ff [knt] fx [km/h] fx [knt] dd rr [mm]
15.07.2020 10:00:00 15,5 10,7 2 1 9 5 SSW 0,0
15.07.2020 09:00:00 14,4 11,2 2 1 6 3 NW 0,0
15.07.2020 08:00:00 12,2 10,6 0 0 7 4 N 0,0
15.07.2020 07:00:00 10,1 9,8 0 0 6 4 N 0,0
15.07.2020 06:00:00 9,5 8,9 0 0 4 2 N 0,0
15.07.2020 05:00:00 10,3 9,5 0 0 6 3 N 0,0
15.07.2020 04:00:00 11,4 10,1 0 0 5 3 N 0,0
15.07.2020 03:00:00 12,4 10,5 0 0 5 3 N 0,0
15.07.2020 02:00:00 13,4 11,3 2 1 11 6 E 0,0
15.07.2020 01:00:00 14,0 10,6 2 1 11 6 NE 0,0
15.07.2020 00:00:00 13,6 10,6 2 1 6 3 NNE 0,0
14.07.2020 23:00:00 13,9 10,5 3 1 6 4 NE 0,0
14.07.2020 22:00:00 14,3 10,5 2 1 8 4 E 0,0
14.07.2020 21:00:00 15,9 11,7 0 0 6 3 N 0,0
14.07.2020 20:00:00 18,2 8,7 2 1 9 5 NE 0,0
14.07.2020 19:00:00 19,4 7,8 3 1 16 8 SSE 0,0
14.07.2020 18:00:00 18,7 10,3 4 2 24 13 N 0,0
14.07.2020 17:00:00 20,5 6,4 7 4 28 15 WSW 0,0
14.07.2020 16:00:00 21,5 6,6 7 4 28 15 SSW 0,0
14.07.2020 15:00:00 22,9 8,2 9 5 36 19 SSW 0,0
14.07.2020 14:00:00 23,5 8,0 8 4 32 17 S 0,0
14.07.2020 13:00:00 22,9 7,8 8 4 29 15 SSW 0,0
14.07.2020 12:00:00 21,6 9,5 8 5 34 18 SSW 0,0
14.07.2020 11:00:00 21,1 9,3 7 4 21 12 SSW 0,0
14.07.2020 10:00:00 18,9 10,7 2 1 9 5 SE 0,0
14.07.2020 09:00:00 13,2 10,0 0 0 8 4 N 0,0
14.07.2020 08:00:00 9,7 9,6 0 0 5 3 N 0,0
14.07.2020 07:00:00 9,1 8,8 0 0 5 3 N 0,0
14.07.2020 06:00:00 9,3 9,2 0 0 5 3 N 0,0
14.07.2020 05:00:00 9,1 8,6 0 0 4 2 N 0,0
14.07.2020 04:00:00 9,8 9,2 2 1 6 4 E 0,0
14.07.2020 03:00:00 10,3 9,4 2 1 6 3 E 0,0
14.07.2020 02:00:00 11,0 9,6 0 0 8 4 N 0,0
14.07.2020 01:00:00 11,5 9,7 2 1 7 4 ENE 0,0
14.07.2020 00:00:00 13,0 10,0 0 0 9 5 N 0,0
13.07.2020 23:00:00 14,6 10,2 2 1 9 5 NE 0,0
13.07.2020 22:00:00 17,0 8,9 2 1 15 8 W 0,0
13.07.2020 21:00:00 18,4 9,2 3 2 14 8 WSW 0,0
13.07.2020 20:00:00 20,8 10,9 5 3 17 9 W 0,0
13.07.2020 19:00:00 22,0 5,8 5 3 19 10 W 0,0
13.07.2020 18:00:00 21,2 9,4 3 2 24 13 N 0,0
13.07.2020 17:00:00 21,9 8,0 9 5 30 16 W 0,0
13.07.2020 16:00:00 24,8 8,3 11 6 31 17 SW 0,0
13.07.2020 15:00:00 24,9 8,0 8 5 29 16 S 0,0
13.07.2020 14:00:00 24,5 9,2 9 5 27 14 S 0,0
13.07.2020 13:00:00 24,2 10,8 8 4 25 14 SSW 0,0
13.07.2020 12:00:00 22,6 10,4 7 4 21 12 SW 0,0
13.07.2020 11:00:00 21,2 11,8 5 3 16 9 SW 0,0
13.07.2020 10:00:00 17,0 11,7 0 0 8 4 N 0,0
13.07.2020 09:00:00 14,6 11,6 0 0 6 3 N 0,0
13.07.2020 08:00:00 11,5 11,5 3 1 7 4 E 0,0
13.07.2020 07:00:00 10,5 10,5 2 1 8 4 N 0,0
13.07.2020 06:00:00 9,2 9,2 2 1 6 4 E 0,0
13.07.2020 05:00:00 9,4 9,1 0 0 6 3 N 0,0
13.07.2020 04:00:00 10,0 9,7 0 0 4 2 N 0,0
13.07.2020 03:00:00 10,1 9,8 0 0 4 2 N 0,0
13.07.2020 02:00:00 10,4 9,9 0 0 6 3 N 0,0
13.07.2020 01:00:00 11,1 10,5 0 0 4 2 N 0,0
13.07.2020 00:00:00 12,1 11,2 0 0 6 3 N 0,0
12.07.2020 23:00:00 13,4 11,8 0 0 5 3 N 0,0
12.07.2020 22:00:00 15,5 11,7 0 0 12 7 N 0,0
12.07.2020 21:00:00 17,7 12,6 3 2 13 7 NE 0,0
12.07.2020 20:00:00 21,7 11,4 4 2 29 16 SW 0,0
12.07.2020 19:00:00 22,9 11,6 7 4 30 16 SSW 0,0
12.07.2020 18:00:00 25,7 11,5 8 4 31 17 S 0,0
12.07.2020 17:00:00 26,3 12,7 6 3 29 16 S 0,0
12.07.2020 16:00:00 25,1 12,7 7 4 29 16 S 0,0
12.07.2020 15:00:00 24,8 11,4 8 4 27 15 SW 0,0
12.07.2020 14:00:00 23,7 9,3 13 7 24 13 W 0,0
12.07.2020 13:00:00 22,2 8,7 10 5 21 12 WSW 0,0
12.07.2020 12:00:00 21,3 9,2 6 3 17 9 SW 0,0
12.07.2020 11:00:00 20,1 11,6 3 2 11 6 E 0,0
12.07.2020 10:00:00 15,4 12,0 0 0 8 4 N 0,0
12.07.2020 09:00:00 9,7 9,7 0 0 8 4 N 0,0
12.07.2020 08:00:00 6,6 6,6 0 0 5 3 N 0,0
12.07.2020 07:00:00 6,3 6,3 0 0 5 3 N 0,0
12.07.2020 06:00:00 6,3 6,2 0 0 4 2 N 0,0
12.07.2020 05:00:00 6,8 6,7 0 0 5 3 N 0,0
12.07.2020 04:00:00 7,4 7,3 2 1 6 3 E 0,0
12.07.2020 03:00:00 7,9 7,8 0 0 6 3 N 0,0
12.07.2020 02:00:00 8,7 8,6 2 1 6 4 N 0,0
12.07.2020 01:00:00 9,5 9,2 0 0 6 3 N 0,0
12.07.2020 00:00:00 10,4 10,1 0 0 7 4 N 0,0
11.07.2020 23:00:00 11,3 11,0 2 1 5 3 NE 0,0
11.07.2020 22:00:00 12,1 11,6 2 1 6 3 N 0,0
11.07.2020 21:00:00 13,4 12,5 0 0 12 6 N 0,0
11.07.2020 20:00:00 14,7 13,4 2 1 6 4 NW 0,0
11.07.2020 19:00:00 16,5 14,7 3 1 9 5 N 0,0
11.07.2020 18:00:00 18,8 12,3 4 2 19 10 W 0,0
11.07.2020 17:00:00 20,6 12,8 5 3 22 12 SSW 0,0
11.07.2020 16:00:00 19,0 13,6 3 2 9 5 NNW 0,0
11.07.2020 15:00:00 16,9 14,4 3 2 13 7 NNE 0,0
11.07.2020 14:00:00 16,7 14,2 4 2 9 5 NW 0,0
11.07.2020 13:00:00 15,8 13,5 3 2 10 5 WSW 0,0
11.07.2020 12:00:00 15,1 14,0 4 2 14 7 WSW 0,0
11.07.2020 11:00:00 14,5 13,4 4 2 14 7 SW 0,0
11.07.2020 10:00:00 14,0 13,4 4 2 14 8 SW 0,2
11.07.2020 09:00:00 13,9 13,4 4 2 21 12 W 1,4
11.07.2020 08:00:00 13,8 13,5 8 4 22 12 WSW 4,4
11.07.2020 07:00:00 14,3 13,7 4 2 16 8 SW 0,4
11.07.2020 06:00:00 14,8 14,3 3 2 10 6 SW 0,8
11.07.2020 05:00:00 14,6 14,4 0 0 5 3 N 0,2
11.07.2020 04:00:00 14,7 14,4 2 1 7 4 NNE 0,0
11.07.2020 03:00:00 14,7 14,4 3 1 11 6 NNE 0,0
11.07.2020 02:00:00 14,9 14,7 2 1 10 6 E 0,4
11.07.2020 01:00:00 15,1 14,5 3 1 16 9 NE 0,0
11.07.2020 00:00:00 16,2 15,2 3 1 48 26 NNE 1,6
10.07.2020 23:00:00 20,7 12,4 4 2 15 8 WSW 0,0
10.07.2020 22:00:00 20,8 14,2 4 2 19 10 WNW 0,0
10.07.2020 21:00:00 22,4 12,6 4 2 17 9 SW 0,0
10.07.2020 20:00:00 23,8 13,1 4 2 20 11 WSW 0,0
10.07.2020 19:00:00 24,4 12,0 3 2 22 12 S 0,0
10.07.2020 18:00:00 28,0 11,1 6 4 27 14 WSW 0,0
10.07.2020 17:00:00 26,6 10,7 5 3 27 15 SSW 0,0
10.07.2020 16:00:00 27,0 11,9 8 4 27 15 S 0,0
10.07.2020 15:00:00 28,7 13,0 6 4 24 13 S 0,0
10.07.2020 14:00:00 28,0 12,8 4 2 24 13 SSE 0,0
10.07.2020 13:00:00 25,8 10,8 6 3 22 12 SSW 0,0
10.07.2020 12:00:00 25,9 10,1 6 3 19 10 SW 0,0
10.07.2020 11:00:00 23,3 10,0 3 2 10 6 W 0,0
10.07.2020 10:00:00 17,6 14,5 2 1 7 4 NW 0,0
10.07.2020 09:00:00 14,2 11,9 2 1 7 4 E 0,0
10.07.2020 08:00:00 11,6 10,8 0 0 5 3 N 0,0
10.07.2020 07:00:00 10,0 9,2 0 0 6 3 N 0,0
10.07.2020 06:00:00 9,6 8,5 2 1 6 3 NE 0,0
10.07.2020 05:00:00 9,9 8,7 0 0 6 4 N 0,0
10.07.2020 04:00:00 10,4 9,0 0 0 6 3 N 0,0
10.07.2020 03:00:00 10,9 8,8 0 0 7 4 N 0,0
10.07.2020 02:00:00 11,7 9,6 0 0 6 4 N 0,0
10.07.2020 01:00:00 12,3 9,8 0 0 5 3 N 0,0
10.07.2020 00:00:00 13,4 10,2 0 0 5 3 N 0,0
09.07.2020 23:00:00 15,0 11,2 0 0 6 3 N 0,0
09.07.2020 22:00:00 17,2 11,7 0 0 6 3 N 0,0
09.07.2020 21:00:00 20,8 12,2 0 0 9 5 N 0,0
09.07.2020 20:00:00 24,4 9,5 3 1 18 10 WSW 0,0
09.07.2020 19:00:00 27,4 6,7 6 4 28 15 WSW 0,0
09.07.2020 18:00:00 29,7 6,3 8 4 28 15 WSW 0,0
09.07.2020 17:00:00 29,9 6,5 6 3 24 13 SSW 0,0
09.07.2020 16:00:00 30,6 5,8 5 3 29 15 S 0,0
09.07.2020 15:00:00 29,3 7,8 7 4 27 14 S 0,0
09.07.2020 14:00:00 28,5 6,6 8 4 23 13 SW 0,0
09.07.2020 13:00:00 27,0 5,3 11 6 22 12 WSW 0,0
09.07.2020 12:00:00 26,1 7,6 6 3 18 10 WSW 0,0
09.07.2020 11:00:00 24,5 7,2 3 2 12 7 SSE 0,0
09.07.2020 10:00:00 20,3 8,0 0 0 8 4 N 0,0

tt = Température de l'air
td = dewpoint
ff = Vitesse du vent
fx = gusts
dd = Direction du vent
rr = Quantités de précipitations

stations d'obs. à proximité